Time;durP1;ratioP1;P1;durP2;ratioP2;P2;SDS_P1;SDS_P2;PMS_P1;PMS_P2;Temp;Humidity;BMP_temperature;BMP_pressure;BME280_temperature;BME280_humidity;BME280_pressure;Samples;Min_cycle;Max_cycle;Signal;HPM_P1;HPM_P2
2021/01/06 00:03:52;;;;;;;5.50;3.65;;;19.60;28.50;;;;;;8344515;28;20548;-58
2021/01/06 00:07:53;;;;;;;5.55;3.50;;;19.60;28.50;;;;;;8330655;28;20049;-59
2021/01/06 00:11:54;;;;;;;4.47;3.28;;;19.60;28.50;;;;;;8359110;28;20041;-59
2021/01/06 00:15:55;;;;;;;5.03;3.55;;;19.60;28.50;;;;;;8354068;28;20103;-58
2021/01/06 00:19:56;;;;;;;4.40;3.10;;;19.60;28.50;;;;;;8330302;28;20041;-59
2021/01/06 00:23:57;;;;;;;3.88;3.17;;;19.60;28.90;;;;;;8329045;28;20064;-58
2021/01/06 00:27:59;;;;;;;7.13;3.50;;;19.60;28.50;;;;;;8330200;28;20503;-57
2021/01/06 00:32:00;;;;;;;4.90;3.05;;;19.60;28.50;;;;;;8332233;28;20363;-59
2021/01/06 00:36:05;;;;;;;5.00;3.47;;;19.60;28.50;;;;;;8361597;28;20076;-58
2021/01/06 00:40:07;;;;;;;5.68;3.63;;;19.60;28.40;;;;;;8347556;28;20287;-58
2021/01/06 00:44:08;;;;;;;;;;;19.60;28.50;;;;;;8353715;28;20532;-58
2021/01/06 00:48:09;;;;;;;4.53;3.30;;;19.60;28.40;;;;;;8353720;28;19968;-60
2021/01/06 00:52:10;;;;;;;4.22;3.15;;;19.60;28.50;;;;;;8333860;28;20565;-58
2021/01/06 00:56:11;;;;;;;4.55;3.25;;;19.60;28.50;;;;;;8353233;28;20105;-59
2021/01/06 01:00:17;;;;;;;4.20;3.28;;;19.50;28.50;;;;;;8335600;28;20396;-59
2021/01/06 01:04:18;;;;;;;4.47;3.13;;;19.60;29.00;;;;;;8362542;28;20065;-58
2021/01/06 01:08:19;;;;;;;5.70;3.70;;;19.50;28.40;;;;;;8364691;28;20029;-58
2021/01/06 01:12:22;;;;;;;4.60;3.40;;;19.60;28.50;;;;;;8352752;28;20073;-58
2021/01/06 01:16:23;;;;;;;5.45;3.40;;;19.50;28.40;;;;;;8328574;28;20057;-58
2021/01/06 01:20:24;;;;;;;5.20;3.60;;;19.60;28.50;;;;;;8352960;28;20044;-58
2021/01/06 01:24:25;;;;;;;5.28;3.45;;;19.50;28.40;;;;;;8352258;28;20068;-59
2021/01/06 01:28:27;;;;;;;6.07;3.73;;;19.50;28.50;;;;;;8332796;28;20025;-58
2021/01/06 01:32:28;;;;;;;4.95;3.47;;;19.50;28.40;;;;;;8322807;28;20878;-58
2021/01/06 01:36:29;;;;;;;4.10;3.23;;;19.50;28.50;;;;;;8322910;28;20045;-59
2021/01/06 01:40:36;;;;;;;5.70;3.47;;;19.50;28.50;;;;;;8360990;28;20681;-58
2021/01/06 01:45:00;;;;;;;4.10;3.45;;;19.50;28.40;;;;;;8335988;28;20477;-59
2021/01/06 01:49:03;;;;;;;5.65;3.40;;;19.50;28.50;;;;;;8313772;28;20487;-59
2021/01/06 01:53:08;;;;;;;4.47;3.50;;;19.50;28.50;;;;;;8353208;28;20492;-58
2021/01/06 01:57:14;;;;;;;4.85;3.38;;;19.50;28.40;;;;;;8351394;28;20045;-59
2021/01/06 02:01:16;;;;;;;4.28;3.00;;;19.50;28.50;;;;;;8344108;28;20041;-59
2021/01/06 02:05:51;;;;;;;5.10;3.45;;;19.50;28.50;;;;;;8362850;28;20040;-58
2021/01/06 02:10:14;;;;;;;5.32;3.95;;;19.50;28.50;;;;;;8321233;28;20111;-60
2021/01/06 02:14:20;;;;;;;4.38;3.30;;;19.50;28.50;;;;;;8351836;28;20590;-59
2021/01/06 02:18:21;;;;;;;5.80;4.00;;;19.50;28.50;;;;;;8358599;28;20418;-58
2021/01/06 02:22:22;;;;;;;5.85;3.78;;;19.50;28.50;;;;;;8359602;28;20128;-58
2021/01/06 02:26:25;;;;;;;5.25;4.07;;;19.50;28.50;;;;;;8335835;28;20045;-58
2021/01/06 02:30:27;;;;;;;4.68;3.33;;;19.50;28.50;;;;;;8339375;28;20057;-58
2021/01/06 02:34:28;;;;;;;4.60;3.03;;;19.50;28.50;;;;;;8340899;28;20038;-59
2021/01/06 02:38:29;;;;;;;5.40;3.30;;;19.40;28.50;;;;;;8324259;28;20514;-59
2021/01/06 02:42:31;;;;;;;5.35;3.60;;;19.50;28.50;;;;;;8325748;28;20025;-59
2021/01/06 02:46:33;;;;;;;4.70;3.67;;;19.40;28.50;;;;;;8330321;28;20514;-59
2021/01/06 02:50:36;;;;;;;4.25;3.58;;;19.40;28.50;;;;;;8324201;28;20034;-59
2021/01/06 02:54:40;;;;;;;4.47;3.58;;;19.40;28.50;;;;;;8325481;28;20122;-59
2021/01/06 02:58:42;;;;;;;4.40;3.30;;;19.40;28.50;;;;;;8326069;28;20046;-58
2021/01/06 03:02:43;;;;;;;4.78;3.30;;;19.40;28.50;;;;;;8353146;28;20046;-59
2021/01/06 03:06:56;;;;;;;;;;;19.40;28.50;;;;;;8338144;28;20033;-59
2021/01/06 03:10:57;;;;;;;4.38;3.10;;;19.40;28.50;;;;;;8336064;28;20432;-59
2021/01/06 03:14:59;;;;;;;5.97;3.70;;;19.40;28.50;;;;;;8323378;28;20069;-59
2021/01/06 03:19:00;;;;;;;4.50;3.20;;;19.40;28.50;;;;;;8339159;28;20044;-59
2021/01/06 03:23:22;;;;;;;4.47;3.58;;;19.40;28.50;;;;;;8339709;28;20406;-59
2021/01/06 03:27:23;;;;;;;;;;;19.40;28.40;;;;;;8333145;28;20127;-59
2021/01/06 03:31:50;;;;;;;4.55;3.30;;;19.40;28.40;;;;;;8357465;28;20014;-58
2021/01/06 03:36:15;;;;;;;4.43;3.13;;;19.40;28.50;;;;;;8350791;28;20049;-58
2021/01/06 03:40:23;;;;;;;4.22;3.03;;;19.40;28.50;;;;;;8324969;28;20037;-59
2021/01/06 03:44:26;;;;;;;4.88;3.55;;;19.30;28.50;;;;;;8327151;28;20030;-58
2021/01/06 03:49:06;;;;;;;6.75;3.90;;;19.30;28.50;;;;;;8326747;28;20403;-59
2021/01/06 03:53:22;;;;;;;5.47;3.80;;;19.30;28.50;;;;;;8348038;28;20033;-59
2021/01/06 03:57:25;;;;;;;5.00;3.72;;;19.30;28.60;;;;;;8355457;28;20355;-58
2021/01/06 04:01:45;;;;;;;5.13;3.17;;;19.30;28.50;;;;;;8357047;28;20041;-59
2021/01/06 04:05:47;;;;;;;5.95;3.30;;;19.30;28.90;;;;;;8355281;28;20371;-59
2021/01/06 04:10:04;;;;;;;5.80;3.65;;;19.30;28.50;;;;;;8361583;28;20115;-58
2021/01/06 04:14:05;;;;;;;4.00;3.47;;;19.30;28.50;;;;;;8356985;28;20447;-59
2021/01/06 04:18:06;;;;;;;5.20;3.70;;;19.30;28.50;;;;;;8323543;28;20049;-59
2021/01/06 04:22:07;;;;;;;5.30;3.67;;;19.30;28.50;;;;;;8339403;28;20756;-59
2021/01/06 04:26:14;;;;;;;5.20;3.67;;;19.40;28.50;;;;;;8334019;28;20106;-60
2021/01/06 04:30:37;;;;;;;6.00;3.97;;;19.40;28.50;;;;;;8302479;28;20765;-59
2021/01/06 04:34:38;;;;;;;5.30;4.03;;;19.50;28.50;;;;;;8332358;28;20038;-59
2021/01/06 04:38:44;;;;;;;6.18;4.00;;;19.50;28.40;;;;;;8322114;28;20056;-59
2021/01/06 04:42:45;;;;;;;5.50;3.72;;;19.50;28.40;;;;;;8323334;28;20083;-58
2021/01/06 04:46:58;;;;;;;5.40;3.53;;;19.60;28.40;;;;;;8348567;28;20033;-58
2021/01/06 04:51:39;;;;;;;6.65;3.92;;;19.60;28.30;;;;;;8304170;28;20168;-58
2021/01/06 04:55:49;;;;;;;5.18;3.70;;;19.70;28.30;;;;;;8339425;28;20045;-58
2021/01/06 05:00:15;;;;;;;5.72;3.88;;;19.70;28.30;;;;;;8327550;28;20092;-58
2021/01/06 05:04:49;;;;;;;5.50;3.90;;;19.70;28.30;;;;;;8346745;28;20045;-59
2021/01/06 05:08:56;;;;;;;5.78;4.45;;;19.70;28.30;;;;;;8355476;28;20040;-58
2021/01/06 05:13:15;;;;;;;6.28;4.18;;;19.80;28.30;;;;;;8342681;28;20563;-59
2021/01/06 05:17:16;;;;;;;6.53;4.13;;;19.80;28.20;;;;;;8339546;28;20049;-58
2021/01/06 05:21:20;;;;;;;6.07;4.13;;;19.90;28.20;;;;;;8352905;28;20041;-59
2021/01/06 05:25:21;;;;;;;5.78;4.00;;;20.00;28.20;;;;;;8328398;28;20052;-58
2021/01/06 05:29:28;;;;;;;5.60;4.07;;;20.00;28.20;;;;;;8352087;28;20087;-58
2021/01/06 05:33:34;;;;;;;6.90;3.72;;;20.00;28.20;;;;;;8365756;28;20095;-58
2021/01/06 05:37:35;;;;;;;5.43;4.25;;;20.00;28.20;;;;;;8341746;28;20049;-58
2021/01/06 05:41:37;;;;;;;5.57;4.22;;;20.10;28.20;;;;;;8326376;28;20040;-59
2021/01/06 05:45:45;;;;;;;6.07;4.45;;;20.10;28.10;;;;;;8327844;28;20486;-59
2021/01/06 05:49:46;;;;;;;6.50;4.65;;;20.10;28.10;;;;;;8348555;28;20386;-59
2021/01/06 05:54:19;;;;;;;5.70;3.60;;;20.20;28.10;;;;;;8363506;28;20040;-58
2021/01/06 05:58:26;;;;;;;5.80;4.05;;;20.20;28.10;;;;;;8360499;28;20106;-58
2021/01/06 06:02:45;;;;;;;6.10;4.13;;;20.20;28.10;;;;;;8356306;28;20068;-59
2021/01/06 06:06:50;;;;;;;5.90;4.47;;;20.30;28.10;;;;;;8327336;28;20398;-59
2021/01/06 06:11:32;;;;;;;6.70;4.50;;;20.30;28.10;;;;;;8348656;28;20460;-59
2021/01/06 06:15:47;;;;;;;7.05;4.38;;;20.30;28.10;;;;;;8358535;28;20037;-58
2021/01/06 06:19:54;;;;;;;6.82;4.45;;;20.30;28.50;;;;;;8364116;28;20393;-58
2021/01/06 06:24:15;;;;;;;6.80;4.57;;;20.30;28.10;;;;;;8358241;28;20044;-59
2021/01/06 06:28:27;;;;;;;6.47;4.38;;;20.40;28.10;;;;;;8343121;28;20079;-59
2021/01/06 06:32:32;;;;;;;7.32;4.60;;;20.40;28.10;;;;;;8326504;28;20049;-59
2021/01/06 06:36:36;;;;;;;7.05;4.25;;;20.40;28.00;;;;;;8359241;28;20048;-58
2021/01/06 06:41:01;;;;;;;7.28;4.82;;;20.40;28.00;;;;;;8344098;28;20422;-59
2021/01/06 06:45:20;;;;;;;5.68;4.22;;;20.50;28.10;;;;;;8323971;28;20026;-58
2021/01/06 06:49:24;;;;;;;6.38;4.50;;;20.50;28.00;;;;;;8326039;28;20486;-58
2021/01/06 06:53:37;;;;;;;8.35;4.75;;;20.50;28.00;;;;;;8324258;28;20463;-59
2021/01/06 06:57:41;;;;;;;8.30;5.05;;;20.50;28.00;;;;;;8325590;28;20111;-58
2021/01/06 07:01:45;;;;;;;7.15;4.72;;;20.50;28.10;;;;;;8330021;28;20041;-57
2021/01/06 07:05:56;;;;;;;7.10;4.55;;;20.60;28.10;;;;;;8348551;28;20036;-59
2021/01/06 07:09:59;;;;;;;8.93;4.90;;;20.60;28.10;;;;;;8325464;28;20075;-59
2021/01/06 07:14:07;;;;;;;7.72;5.13;;;20.60;28.10;;;;;;8325078;28;20040;-58
2021/01/06 07:18:22;;;;;;;7.50;4.90;;;20.60;28.00;;;;;;8330601;28;20505;-59
2021/01/06 07:22:33;;;;;;;8.27;5.22;;;20.60;28.00;;;;;;8344913;28;20538;-58
2021/01/06 07:27:07;;;;;;;7.50;4.78;;;20.60;28.00;;;;;;8326125;28;20083;-58
2021/01/06 07:31:28;;;;;;;7.18;4.72;;;20.60;28.00;;;;;;8357626;28;20041;-58
2021/01/06 07:35:30;;;;;;;5.50;4.18;;;20.70;28.10;;;;;;8355862;28;20386;-58
2021/01/06 07:39:31;;;;;;;;;;;20.70;28.00;;;;;;8357790;28;20033;-59
2021/01/06 07:43:36;;;;;;;8.48;4.70;;;20.70;28.00;;;;;;8362187;28;20338;-59
2021/01/06 07:47:47;;;;;;;6.68;4.75;;;20.70;28.10;;;;;;8328010;28;20030;-58
2021/01/06 07:52:02;;;;;;;7.13;4.77;;;20.70;28.00;;;;;;8324220;28;20091;-58
2021/01/06 07:56:14;;;;;;;7.15;4.65;;;20.70;28.00;;;;;;8324231;28;20304;-58
2021/01/06 08:00:25;;;;;;;7.75;5.00;;;20.70;28.00;;;;;;8347471;28;20041;-58
2021/01/06 08:04:38;;;;;;;7.70;4.85;;;20.80;28.00;;;;;;8328771;28;20033;-59
2021/01/06 08:08:48;;;;;;;8.05;4.95;;;20.80;28.00;;;;;;8294371;28;20045;-58
2021/01/06 08:12:50;;;;;;;7.28;5.13;;;20.80;28.00;;;;;;8316838;28;20491;-59
2021/01/06 08:16:59;;;;;;;7.88;4.90;;;20.80;28.00;;;;;;8323824;28;20073;-59
2021/01/06 08:21:20;;;;;;;8.73;5.18;;;20.80;28.00;;;;;;8322559;28;20038;-59
2021/01/06 08:25:27;;;;;;;8.13;5.78;;;20.70;28.00;;;;;;8343996;28;20037;-58
2021/01/06 08:29:33;;;;;;;9.98;5.03;;;20.70;28.10;;;;;;8333293;28;20046;-59
2021/01/06 08:33:48;;;;;;;7.88;5.40;;;20.60;28.10;;;;;;8356334;28;20030;-59
2021/01/06 08:37:51;;;;;;;5.85;4.40;;;20.60;28.10;;;;;;8363249;28;20045;-59
2021/01/06 08:41:55;;;;;;;6.90;4.85;;;20.60;28.10;;;;;;8331379;28;20041;-59
2021/01/06 08:45:59;;;;;;;6.97;4.90;;;20.50;28.20;;;;;;8333947;28;20033;-59
2021/01/06 08:50:18;;;;;;;8.20;5.00;;;20.50;28.20;;;;;;8329636;28;20042;-59
2021/01/06 08:54:37;;;;;;;7.78;4.75;;;20.40;28.20;;;;;;8336899;28;20033;-58
2021/01/06 08:58:45;;;;;;;7.22;4.80;;;20.40;28.20;;;;;;8362346;28;20071;-59
2021/01/06 09:03:11;;;;;;;7.07;5.05;;;20.40;28.20;;;;;;8331807;28;20040;-59
2021/01/06 09:07:27;;;;;;;8.57;5.15;;;20.30;28.20;;;;;;8345219;28;20494;-59
2021/01/06 09:11:31;;;;;;;7.97;5.03;;;20.30;28.20;;;;;;8362861;28;20049;-59
2021/01/06 09:15:55;;;;;;;7.13;4.75;;;20.30;28.30;;;;;;8329239;28;20557;-58
2021/01/06 09:20:07;;;;;;;7.30;4.75;;;20.20;28.30;;;;;;8317942;28;20032;-58
2021/01/06 09:24:20;;;;;;;6.47;4.60;;;20.20;28.30;;;;;;8334505;28;20041;-58
2021/01/06 09:28:22;;;;;;;6.32;4.57;;;20.20;28.30;;;;;;8344185;28;20459;-58
2021/01/06 09:32:35;;;;;;;7.38;4.90;;;20.20;28.30;;;;;;8331189;28;20107;-58
2021/01/06 09:36:36;;;;;;;6.40;4.55;;;20.10;28.80;;;;;;8328036;28;20414;-57
2021/01/06 09:40:38;;;;;;;6.88;4.72;;;20.10;28.30;;;;;;8327866;28;20034;-58
2021/01/06 09:44:38;;;;;;;6.43;4.70;;;20.10;28.30;;;;;;8329462;28;20039;-58
2021/01/06 09:48:43;;;;;;;7.65;4.95;;;20.10;28.40;;;;;;8349161;28;20483;-58
2021/01/06 09:52:47;;;;;;;6.60;4.70;;;20.00;28.40;;;;;;8332287;28;20033;-58
2021/01/06 09:56:48;;;;;;;6.05;4.30;;;20.00;28.40;;;;;;8326249;28;20060;-59
2021/01/06 10:01:15;;;;;;;6.72;4.88;;;20.00;28.50;;;;;;8327252;28;20368;-58
2021/01/06 10:05:31;;;;;;;7.55;4.70;;;20.00;28.50;;;;;;8325933;28;20064;-57
2021/01/06 10:09:40;;;;;;;6.20;4.25;;;20.00;28.50;;;;;;8327160;28;20483;-58
2021/01/06 10:14:03;;;;;;;5.93;4.20;;;19.90;28.50;;;;;;8331847;28;20032;-58
2021/01/06 10:18:27;;;;;;;6.90;4.57;;;20.00;28.50;;;;;;8349886;28;20449;-58
2021/01/06 10:22:47;;;;;;;6.45;4.43;;;19.90;28.50;;;;;;8327347;28;20068;-59
2021/01/06 10:27:25;;;;;;;6.15;4.35;;;19.90;28.50;;;;;;8324997;28;20041;-58
2021/01/06 10:31:26;;;;;;;5.57;4.07;;;19.90;28.50;;;;;;8344323;28;20048;-57
2021/01/06 10:35:56;;;;;;;6.43;4.18;;;19.90;28.50;;;;;;8355900;28;20102;-58
2021/01/06 10:40:24;;;;;;;7.15;4.43;;;19.90;28.50;;;;;;8330818;28;20034;-58
2021/01/06 10:44:31;;;;;;;5.63;4.15;;;19.90;28.50;;;;;;8349120;28;20409;-58
2021/01/06 10:48:47;;;;;;;5.88;4.20;;;19.90;28.50;;;;;;8325443;28;20037;-58
2021/01/06 10:53:06;;;;;;;5.78;4.18;;;20.00;28.50;;;;;;8346889;28;20528;-58
2021/01/06 10:57:47;;;;;;;5.13;4.30;;;19.90;28.50;;;;;;8356758;28;20098;-58
2021/01/06 11:02:16;;;;;;;6.43;4.47;;;19.90;28.50;;;;;;8358693;28;20078;-59
2021/01/06 11:06:26;;;;;;;5.50;3.95;;;19.90;28.50;;;;;;8360441;28;20025;-58
2021/01/06 11:11:04;;;;;;;4.68;3.88;;;19.90;28.50;;;;;;8358441;28;20037;-58
2021/01/06 11:15:19;;;;;;;4.75;3.85;;;19.90;28.50;;;;;;8349913;28;20038;-58
2021/01/06 11:19:57;;;;;;;5.07;3.90;;;19.90;28.50;;;;;;8325048;28;20049;-58
2021/01/06 11:24:00;;;;;;;4.97;3.70;;;19.90;28.50;;;;;;8354159;28;20410;-59
2021/01/06 11:28:04;;;;;;;6.07;4.15;;;19.90;28.50;;;;;;8343365;28;20046;-59
2021/01/06 11:32:27;;;;;;;4.70;3.85;;;19.90;28.50;;;;;;8329073;28;20032;-58
2021/01/06 11:36:55;;;;;;;5.13;3.63;;;19.90;28.50;;;;;;8323035;28;20139;-59
2021/01/06 11:40:56;;;;;;;4.90;3.70;;;19.80;28.50;;;;;;8324637;28;20044;-59
2021/01/06 11:45:14;;;;;;;5.15;3.95;;;19.80;28.50;;;;;;8323242;28;20064;-60
2021/01/06 11:49:30;;;;;;;4.53;3.50;;;19.80;28.50;;;;;;8324338;28;20489;-58
2021/01/06 11:53:40;;;;;;;4.70;3.65;;;19.80;28.50;;;;;;8324844;28;20034;-59
2021/01/06 11:58:16;;;;;;;4.95;3.65;;;19.70;28.50;;;;;;8361543;28;20398;-59
2021/01/06 12:02:28;;;;;;;6.03;4.30;;;19.70;28.50;;;;;;8360496;28;20094;-58
2021/01/06 12:06:53;;;;;;;5.63;4.40;;;19.70;28.50;;;;;;8331077;28;20045;-59
2021/01/06 12:11:04;;;;;;;5.43;4.43;;;19.70;28.60;;;;;;8330962;28;20052;-59
2021/01/06 12:15:46;;;;;;;4.28;3.85;;;19.60;28.60;;;;;;8360718;28;20079;-59
2021/01/06 12:20:18;;;;;;;5.57;3.58;;;19.70;28.70;;;;;;8357334;28;20533;-59
2021/01/06 12:24:29;;;;;;;6.20;3.47;;;19.70;28.60;;;;;;8357847;28;20052;-59
2021/01/06 12:28:54;;;;;;;5.00;3.72;;;19.60;28.60;;;;;;8330279;28;20064;-59
2021/01/06 12:33:03;;;;;;;5.30;3.90;;;19.70;28.60;;;;;;8358697;28;20037;-58
2021/01/06 12:37:13;;;;;;;5.20;4.00;;;19.70;28.60;;;;;;8348051;28;20045;-59
2021/01/06 12:41:24;;;;;;;4.65;3.80;;;19.70;28.60;;;;;;8330133;28;20094;-59
2021/01/06 12:45:36;;;;;;;5.38;3.92;;;19.70;28.60;;;;;;8352812;28;20398;-59
2021/01/06 12:50:06;;;;;;;4.95;3.28;;;19.70;28.60;;;;;;8320689;28;20033;-60
2021/01/06 12:54:17;;;;;;;4.47;3.45;;;19.60;28.60;;;;;;8316527;28;20570;-58
2021/01/06 12:58:35;;;;;;;4.53;3.70;;;19.70;28.60;;;;;;8317983;28;20391;-58
2021/01/06 13:02:39;;;;;;;3.78;3.17;;;19.70;28.60;;;;;;8330522;28;20382;-59
2021/01/06 13:06:43;;;;;;;4.70;3.63;;;19.70;28.60;;;;;;8362244;28;20170;-59
2021/01/06 13:10:45;;;;;;;3.55;2.88;;;19.70;28.60;;;;;;8365735;28;20120;-58
2021/01/06 13:14:50;;;;;;;4.40;3.47;;;19.70;28.60;;;;;;8360208;28;20048;-59
2021/01/06 13:18:57;;;;;;;4.35;3.40;;;19.70;29.00;;;;;;8361660;28;20157;-59
2021/01/06 13:23:21;;;;;;;5.15;3.40;;;19.70;28.60;;;;;;8339668;28;20049;-59
2021/01/06 13:27:47;;;;;;;4.97;3.05;;;19.60;28.90;;;;;;8350665;28;20486;-59
2021/01/06 13:31:51;;;;;;;3.97;3.20;;;19.70;28.70;;;;;;8353674;28;20056;-59
2021/01/06 13:35:57;;;;;;;5.22;3.53;;;19.60;28.60;;;;;;8359016;28;20091;-59
2021/01/06 13:40:27;;;;;;;5.03;3.65;;;19.60;28.60;;;;;;8360742;28;20037;-59
2021/01/06 13:44:38;;;;;;;4.22;3.55;;;19.60;28.60;;;;;;8332824;28;20053;-58
2021/01/06 13:48:38;;;;;;;4.43;3.60;;;19.60;28.60;;;;;;8327458;28;20026;-59
2021/01/06 13:52:42;;;;;;;5.03;3.90;;;19.60;28.60;;;;;;8332045;28;20568;-58
2021/01/06 13:57:09;;;;;;;4.90;3.10;;;19.60;28.60;;;;;;8325468;28;20044;-58
2021/01/06 14:01:32;;;;;;;4.68;3.10;;;19.60;28.70;;;;;;8327212;28;20049;-58
2021/01/06 14:05:40;;;;;;;5.93;3.67;;;19.60;28.70;;;;;;8328428;28;20029;-59
2021/01/06 14:10:00;;;;;;;5.20;3.60;;;19.60;28.70;;;;;;8348281;28;20038;-57
2021/01/06 14:14:28;;;;;;;4.35;3.13;;;19.50;28.60;;;;;;8349616;28;20559;-58
2021/01/06 14:18:42;;;;;;;4.97;3.05;;;19.50;28.60;;;;;;8340330;28;20078;-59
2021/01/06 14:23:02;;;;;;;3.92;3.28;;;19.50;28.60;;;;;;8358959;28;20087;-59
2021/01/06 14:27:07;;;;;;;3.90;3.03;;;19.50;28.60;;;;;;8326960;28;20034;-59
2021/01/06 14:31:37;;;;;;;5.75;3.40;;;19.50;28.60;;;;;;8342244;28;20037;-59
2021/01/06 14:35:45;;;;;;;4.63;3.08;;;19.60;28.70;;;;;;8356999;28;20033;-59
2021/01/06 14:40:01;;;;;;;4.68;2.97;;;19.60;28.70;;;;;;8361359;28;20453;-59
2021/01/06 14:44:30;;;;;;;4.18;3.30;;;19.50;28.60;;;;;;8330725;28;20139;-59
2021/01/06 14:48:47;;;;;;;4.18;3.03;;;19.50;28.60;;;;;;8344560;28;20038;-59
2021/01/06 14:53:11;;;;;;;4.80;3.25;;;19.50;28.60;;;;;;8325630;28;20044;-59
2021/01/06 14:57:58;;;;;;;4.63;3.25;;;19.50;28.60;;;;;;8324185;28;20049;-60
2021/01/06 15:01:58;;;;;;;4.70;3.13;;;19.60;28.70;;;;;;8311349;28;20046;-59
2021/01/06 15:06:20;;;;;;;4.90;3.40;;;19.50;28.60;;;;;;8323671;28;20568;-58
2021/01/06 15:10:27;;;;;;;6.32;4.65;;;19.50;28.50;;;;;;8324208;28;20076;-59
2021/01/06 15:14:38;;;;;;;6.90;3.72;;;19.30;28.40;;;;;;8324741;28;20049;-58
2021/01/06 15:18:47;;;;;;;7.53;3.97;;;19.20;29.00;;;;;;8352248;28;20106;-57
2021/01/06 15:22:51;;;;;;;7.32;4.07;;;19.20;29.00;;;;;;8331426;28;20041;-60
2021/01/06 15:26:59;;;;;;;8.30;4.80;;;19.30;29.00;;;;;;8317559;28;24501;-56
2021/01/06 15:31:03;;;;;;;4.70;3.65;;;19.30;29.10;;;;;;8337535;28;20037;-59
2021/01/06 15:35:22;;;;;;;4.80;3.55;;;19.40;29.20;;;;;;8328716;28;20510;-56
2021/01/06 15:39:27;;;;;;;7.47;3.33;;;19.50;29.50;;;;;;8326639;28;20517;-58
2021/01/06 15:43:34;;;;;;;4.43;3.03;;;19.50;29.80;;;;;;8333760;28;20138;-57
2021/01/06 15:47:39;;;;;;;5.10;3.33;;;19.60;30.00;;;;;;8339866;28;21183;-59
2021/01/06 15:51:52;;;;;;;8.80;3.45;;;19.60;30.30;;;;;;8334546;28;20037;-59
2021/01/06 15:55:58;;;;;;;6.55;3.45;;;19.60;30.10;;;;;;8351310;28;20445;-58
2021/01/06 16:00:07;;;;;;;4.97;2.90;;;19.60;30.10;;;;;;8318956;28;20046;-57
2021/01/06 16:04:09;;;;;;;4.53;3.50;;;19.60;30.00;;;;;;8318190;28;20058;-59
2021/01/06 16:08:23;;;;;;;8.40;3.40;;;19.60;30.50;;;;;;8320516;28;20057;-58
2021/01/06 16:12:28;;;;;;;4.60;3.25;;;19.60;29.90;;;;;;8298163;28;20045;-57
2021/01/06 16:16:34;;;;;;;5.13;2.95;;;19.70;29.90;;;;;;8325281;28;20136;-58
2021/01/06 16:20:39;;;;;;;4.70;3.33;;;19.80;29.80;;;;;;8316350;28;20038;-57
2021/01/06 16:24:39;;;;;;;7.07;3.70;;;19.80;29.70;;;;;;8329500;28;20033;-58
2021/01/06 16:28:40;;;;;;;4.47;3.10;;;19.90;29.70;;;;;;8355436;28;20144;-57
2021/01/06 16:33:00;;;;;;;4.27;3.10;;;20.00;29.70;;;;;;8320963;28;20061;-57
2021/01/06 16:37:06;;;;;;;4.35;2.80;;;20.00;29.60;;;;;;8332652;28;20053;-56
2021/01/06 16:41:36;;;;;;;4.18;3.05;;;20.10;29.80;;;;;;8327185;28;20083;-56
2021/01/06 16:45:36;;;;;;;4.30;2.65;;;20.10;29.90;;;;;;8315768;28;20071;-52
2021/01/06 16:49:37;;;;;;;9.03;3.33;;;20.10;30.00;;;;;;8326894;28;20037;-55
2021/01/06 16:53:38;;;;;;;4.53;3.10;;;20.10;30.00;;;;;;8325313;28;20040;-54
2021/01/06 16:57:46;;;;;;;6.53;3.20;;;20.20;30.00;;;;;;8356722;28;20049;-54
2021/01/06 17:01:55;;;;;;;7.72;3.03;;;20.20;30.00;;;;;;8356532;28;20053;-56
2021/01/06 17:06:12;;;;;;;4.32;2.70;;;20.20;30.00;;;;;;8349006;28;20409;-56
2021/01/06 17:10:45;;;;;;;5.72;2.72;;;20.20;30.20;;;;;;8325921;28;20033;-56
2021/01/06 17:14:46;;;;;;;6.82;3.40;;;20.30;30.20;;;;;;8295844;28;20037;-55
2021/01/06 17:18:56;;;;;;;11.30;3.57;;;20.30;30.10;;;;;;8354205;28;20524;-56
2021/01/06 17:23:07;;;;;;;6.35;2.83;;;20.30;30.10;;;;;;8334090;28;20183;-55
2021/01/06 17:27:18;;;;;;;4.63;2.88;;;20.40;30.10;;;;;;8329093;28;20037;-55
2021/01/06 17:31:21;;;;;;;5.30;3.15;;;20.40;30.00;;;;;;8365991;28;20124;-57
2021/01/06 17:35:22;;;;;;;4.60;3.05;;;20.40;30.00;;;;;;8335182;28;20103;-55
2021/01/06 17:39:49;;;;;;;5.63;3.17;;;20.40;30.00;;;;;;8328642;28;20498;-56
2021/01/06 17:43:50;;;;;;;4.35;2.78;;;20.30;29.80;;;;;;8327870;28;20502;-56
2021/01/06 17:47:52;;;;;;;4.30;2.97;;;20.30;29.80;;;;;;8326274;28;20037;-55
2021/01/06 17:51:53;;;;;;;;;;;20.30;29.80;;;;;;8332824;28;20451;-55
2021/01/06 17:55:55;;;;;;;4.63;3.07;;;20.30;29.70;;;;;;8327716;28;19913;-57
2021/01/06 17:59:59;;;;;;;6.75;2.75;;;20.30;29.70;;;;;;8356191;28;20554;-56
2021/01/06 18:04:02;;;;;;;5.45;3.00;;;20.30;29.60;;;;;;8346348;28;20033;-56
2021/01/06 18:08:07;;;;;;;5.60;2.97;;;20.30;29.60;;;;;;8327289;28;20037;-56
2021/01/06 18:12:09;;;;;;;4.78;2.67;;;20.30;29.60;;;;;;8329894;28;20276;-56
2021/01/06 18:16:18;;;;;;;4.95;2.58;;;20.30;29.50;;;;;;8327324;28;20494;-56
2021/01/06 18:20:33;;;;;;;4.55;3.20;;;20.40;29.50;;;;;;8325113;28;20033;-55
2021/01/06 18:24:37;;;;;;;4.43;3.05;;;20.40;29.40;;;;;;8337458;28;20063;-56
2021/01/06 18:28:38;;;;;;;4.93;3.20;;;20.40;29.30;;;;;;8341138;28;20047;-55
2021/01/06 18:32:39;;;;;;;4.60;3.10;;;20.40;29.30;;;;;;8328327;28;20033;-55
2021/01/06 18:36:40;;;;;;;4.80;3.07;;;20.40;29.20;;;;;;8337968;28;20879;-55
2021/01/06 18:40:42;;;;;;;4.60;2.88;;;20.40;29.20;;;;;;8359084;28;20275;-55
2021/01/06 18:44:42;;;;;;;4.38;2.90;;;20.50;29.20;;;;;;8332811;28;20037;-55
2021/01/06 18:48:43;;;;;;;5.57;3.50;;;20.50;29.20;;;;;;8351592;28;20079;-56
2021/01/06 18:52:44;;;;;;;4.50;3.00;;;20.50;29.20;;;;;;8325938;28;20276;-55
2021/01/06 18:56:46;;;;;;;5.10;3.20;;;20.50;29.20;;;;;;8324455;28;20037;-56
2021/01/06 19:00:47;;;;;;;3.75;2.60;;;20.50;29.10;;;;;;8325426;28;20032;-55
2021/01/06 19:05:07;;;;;;;5.05;3.17;;;20.50;29.10;;;;;;8329837;28;20408;-55
2021/01/06 19:09:08;;;;;;;4.60;2.88;;;20.60;29.10;;;;;;8326879;28;20099;-55
2021/01/06 19:13:09;;;;;;;5.13;3.38;;;20.60;29.10;;;;;;8349827;28;20033;-56
2021/01/06 19:17:18;;;;;;;3.95;3.00;;;20.60;29.00;;;;;;8358097;28;20075;-56
2021/01/06 19:21:19;;;;;;;4.93;2.97;;;20.60;29.10;;;;;;8349458;28;20490;-55
2021/01/06 19:25:22;;;;;;;5.05;2.80;;;20.60;29.10;;;;;;8345267;28;20029;-55
2021/01/06 19:29:23;;;;;;;4.50;3.25;;;20.60;29.10;;;;;;8348194;28;20037;-55
2021/01/06 19:33:26;;;;;;;4.22;2.70;;;20.60;29.10;;;;;;8324954;28;20092;-56
2021/01/06 19:37:27;;;;;;;3.75;2.70;;;20.60;29.20;;;;;;8324837;28;20099;-56
2021/01/06 19:41:31;;;;;;;4.78;3.30;;;20.60;29.10;;;;;;8324313;28;20042;-55
2021/01/06 19:45:32;;;;;;;5.00;2.90;;;20.60;29.20;;;;;;8296261;28;20030;-56
2021/01/06 19:49:33;;;;;;;4.68;3.22;;;20.60;29.20;;;;;;8316325;28;20080;-56
2021/01/06 19:53:39;;;;;;;5.28;3.15;;;20.60;29.20;;;;;;8347294;28;20029;-56
2021/01/06 19:57:40;;;;;;;4.18;3.10;;;20.60;29.20;;;;;;8324199;28;20045;-56
2021/01/06 20:01:41;;;;;;;4.18;3.05;;;20.60;29.20;;;;;;8329006;28;20129;-56
2021/01/06 20:05:57;;;;;;;5.25;3.53;;;20.60;29.20;;;;;;8322470;28;20034;-57
2021/01/06 20:10:14;;;;;;;5.53;3.28;;;20.60;29.10;;;;;;8324363;28;20076;-56
2021/01/06 20:14:17;;;;;;;5.20;3.20;;;20.60;29.10;;;;;;8348873;28;20513;-56
2021/01/06 20:18:17;;;;;;;4.32;3.22;;;20.60;29.10;;;;;;8344063;28;20084;-56
2021/01/06 20:22:18;;;;;;;6.23;3.63;;;20.60;29.10;;;;;;8347034;28;20036;-56
2021/01/06 20:26:20;;;;;;;5.57;3.57;;;20.60;29.10;;;;;;8362054;28;20041;-56
2021/01/06 20:30:20;;;;;;;6.13;3.60;;;20.60;29.10;;;;;;8363499;28;20041;-58
2021/01/06 20:34:21;;;;;;;5.70;3.67;;;20.60;29.00;;;;;;8363693;28;20057;-56
2021/01/06 20:38:22;;;;;;;5.95;3.70;;;20.70;29.00;;;;;;8365859;28;20037;-56
2021/01/06 20:42:22;;;;;;;5.73;3.53;;;20.70;28.90;;;;;;8362973;28;20029;-56
2021/01/06 20:46:28;;;;;;;4.57;3.60;;;20.80;28.90;;;;;;8362936;28;20581;-55
2021/01/06 20:50:29;;;;;;;3.60;2.92;;;20.80;28.80;;;;;;8361190;28;20033;-56
2021/01/06 20:54:30;;;;;;;6.27;4.00;;;20.80;28.80;;;;;;8362348;28;20029;-56
2021/01/06 20:58:30;;;;;;;5.93;3.70;;;20.90;28.70;;;;;;8366943;28;20037;-55
2021/01/06 21:02:31;;;;;;;5.27;3.70;;;20.90;28.70;;;;;;8334085;28;20033;-56
2021/01/06 21:06:31;;;;;;;5.67;4.10;;;20.90;28.70;;;;;;8339787;28;20140;-55
2021/01/06 21:10:34;;;;;;;5.07;3.63;;;20.90;28.70;;;;;;8362321;28;20032;-56
2021/01/06 21:14:35;;;;;;;6.32;4.25;;;20.90;28.70;;;;;;8364976;28;20033;-56
2021/01/06 21:18:36;;;;;;;6.18;3.80;;;20.90;29.10;;;;;;8350890;28;20046;-56
2021/01/06 21:22:36;;;;;;;6.03;3.47;;;20.90;28.60;;;;;;8348659;28;20064;-56
2021/01/06 21:26:37;;;;;;;4.73;3.17;;;20.90;28.70;;;;;;8360341;28;20128;-56
2021/01/06 21:30:38;;;;;;;5.23;3.63;;;20.90;28.70;;;;;;8363978;28;20033;-56
2021/01/06 21:34:38;;;;;;;8.07;4.00;;;20.80;28.70;;;;;;8343861;28;20315;-56
2021/01/06 21:38:39;;;;;;;5.23;3.67;;;20.80;28.70;;;;;;8329877;28;20037;-56
2021/01/06 21:42:39;;;;;;;4.90;3.67;;;20.70;28.70;;;;;;8349838;28;20029;-56